Time;durP1;ratioP1;P1;durP2;ratioP2;P2;SDS_P1;SDS_P2;PMS_P1;PMS_P2;Temp;Humidity;BMP_temperature;BMP_pressure;BME280_temperature;BME280_humidity;BME280_pressure;Samples;Min_cycle;Max_cycle;Signal;HPM_P1;HPM_P2
2022/03/21 00:00:59;;;;;;;14.15;3.13;;;;;;;2.87;74.25;101390.09;6016823;23;20245;-70
2022/03/21 00:03:29;;;;;;;16.10;3.15;;;;;;;2.88;74.41;101389.16;5993614;23;20030;-69
2022/03/21 00:05:57;;;;;;;15.70;2.97;;;;;;;2.91;74.27;101383.69;6065855;23;20086;-69
2022/03/21 00:08:24;;;;;;;16.42;3.78;;;;;;;2.99;74.84;101386.06;6040367;23;20405;-69
2022/03/21 00:10:52;;;;;;;13.75;3.08;;;;;;;2.93;74.63;101387.19;6065795;23;20026;-67
2022/03/21 00:13:19;;;;;;;16.75;3.65;;;;;;;2.83;74.67;101391.16;6017192;23;20487;-69
2022/03/21 00:15:50;;;;;;;16.30;3.05;;;;;;;2.87;75.12;101392.78;6017114;23;20026;-68
2022/03/21 00:18:16;;;;;;;17.88;3.75;;;;;;;2.86;75.54;101380.34;6017061;23;20137;-68
2022/03/21 00:20:43;;;;;;;12.20;3.17;;;;;;;2.97;74.70;101387.94;5993134;23;20054;-69
2022/03/21 00:23:09;;;;;;;17.20;3.22;;;;;;;2.90;74.86;101392.66;5993244;23;20031;-68
2022/03/21 00:25:35;;;;;;;13.77;2.72;;;;;;;2.88;74.74;101381.16;6017277;23;20027;-68
2022/03/21 00:28:02;;;;;;;14.35;3.33;;;;;;;2.85;74.87;101370.56;5993267;23;20071;-67
2022/03/21 00:30:29;;;;;;;14.10;2.88;;;;;;;2.78;75.25;101371.75;6040270;23;20450;-69
2022/03/21 00:32:56;;;;;;;10.32;2.70;;;;;;;2.76;75.28;101374.47;5993593;23;20034;-68
2022/03/21 00:35:22;;;;;;;12.73;3.72;;;;;;;2.69;75.33;101372.97;6017116;23;20018;-67
2022/03/21 00:37:48;;;;;;;16.25;3.05;;;;;;;2.68;76.86;101371.25;5993631;23;20145;-67
2022/03/21 00:40:16;;;;;;;11.93;2.90;;;;;;;2.59;76.74;101367.09;5992525;23;20057;-68
2022/03/21 00:42:44;;;;;;;18.15;3.78;;;;;;;2.55;76.87;101360.16;6016391;23;20065;-69
2022/03/21 00:45:15;;;;;;;17.15;3.13;;;;;;;2.55;76.94;101360.16;6040006;23;20025;-68
2022/03/21 00:47:41;;;;;;;17.55;3.30;;;;;;;2.46;77.33;101360.50;6040377;23;20156;-67
2022/03/21 00:50:09;;;;;;;16.48;3.38;;;;;;;2.45;77.35;101358.78;6062647;23;20031;-68
2022/03/21 00:52:46;;;;;;;15.95;3.10;;;;;;;2.39;77.10;101359.00;6016440;23;20034;-67
2022/03/21 00:55:13;;;;;;;19.05;4.00;;;;;;;2.39;78.02;101361.66;6063920;23;20031;-67
2022/03/21 00:57:42;;;;;;;13.30;3.38;;;;;;;2.38;78.06;101362.59;6040240;23;20023;-70
2022/03/21 01:00:10;;;;;;;14.05;2.85;;;;;;;2.40;77.91;101369.59;6016881;23;20037;-70
2022/03/21 01:02:36;;;;;;;14.57;2.90;;;;;;;2.38;78.11;101373.28;6064290;23;20102;-68
2022/03/21 01:05:03;;;;;;;12.52;3.08;;;;;;;2.29;78.33;101371.78;5992710;23;20457;-68
2022/03/21 01:07:30;;;;;;;11.50;3.30;;;;;;;2.31;78.46;101371.75;6039792;23;20087;-69
2022/03/21 01:09:56;;;;;;;14.23;3.60;;;;;;;2.25;78.89;101374.66;5992774;23;20027;-69
2022/03/21 01:12:22;;;;;;;17.85;3.65;;;;;;;2.22;78.97;101372.06;5993169;23;20023;-69
2022/03/21 01:14:48;;;;;;;16.17;3.33;;;;;;;2.27;79.11;101370.13;6016306;23;20082;-69
2022/03/21 01:17:14;;;;;;;19.27;3.50;;;;;;;2.18;78.65;101379.31;5993172;23;20031;-69
2022/03/21 01:19:40;;;;;;;15.70;3.17;;;;;;;2.14;79.19;101365.22;6040749;23;20026;-69
2022/03/21 01:22:06;;;;;;;16.98;3.60;;;;;;;2.14;79.34;101375.03;6065639;23;20397;-68
2022/03/21 01:24:35;;;;;;;13.68;3.08;;;;;;;2.13;79.33;101360.81;5993250;23;20141;-67
2022/03/21 01:27:02;;;;;;;16.65;4.00;;;;;;;2.02;79.80;101360.34;6017326;23;20029;-67
2022/03/21 01:29:29;;;;;;;16.80;3.05;;;;;;;2.00;80.00;101359.50;6040078;23;20362;-68
2022/03/21 01:31:54;;;;;;;14.45;3.50;;;;;;;1.90;79.93;101342.09;6015978;23;20031;-69
2022/03/21 01:34:21;;;;;;;11.80;3.15;;;;;;;1.96;80.47;101349.88;5992931;23;20141;-67
2022/03/21 01:36:47;;;;;;;17.20;3.72;;;;;;;1.91;80.42;101358.06;6040125;23;20026;-69
2022/03/21 01:39:13;;;;;;;14.40;3.33;;;;;;;1.90;80.67;101358.09;5992451;23;20031;-70
2022/03/21 01:41:39;;;;;;;14.70;3.10;;;;;;;1.92;81.08;101361.59;5992591;23;20041;-68
2022/03/21 01:44:08;;;;;;;15.93;3.80;;;;;;;1.84;80.87;101361.84;5992929;23;20054;-67
2022/03/21 01:46:34;;;;;;;16.80;2.85;;;;;;;1.85;81.32;101366.25;6040149;23;20038;-69
2022/03/21 01:49:01;;;;;;;17.15;3.47;;;;;;;1.84;81.20;101361.00;6015457;23;20062;-68
2022/03/21 01:51:28;;;;;;;13.00;3.25;;;;;;;1.79;81.66;101362.94;6039906;23;20106;-68
2022/03/21 01:56:41;;;;;;;13.70;3.13;;;;;;;1.76;81.39;101352.41;6019470;23;20417;-68
2022/03/21 01:59:08;;;;;;;16.63;3.25;;;;;;;1.72;81.65;101340.06;6039852;23;20026;-68
2022/03/21 02:01:35;;;;;;;13.10;3.08;;;;;;;1.69;81.76;101352.59;5992312;23;20167;-67
2022/03/21 02:04:01;;;;;;;18.63;3.58;;;;;;;1.74;82.15;101359.56;6016112;23;20031;-67
2022/03/21 02:06:30;;;;;;;12.50;3.22;;;;;;;1.78;82.54;101361.19;5993285;23;20019;-67
2022/03/21 02:08:57;;;;;;;12.52;2.97;;;;;;;1.79;82.38;101368.25;6016098;23;20446;-68
2022/03/21 02:11:25;;;;;;;12.98;2.70;;;;;;;1.67;82.04;101365.09;6039107;23;20113;-67
2022/03/21 02:13:59;;;;;;;16.02;2.72;;;;;;;1.68;83.19;101364.19;5992299;23;20422;-67
2022/03/21 02:16:26;;;;;;;15.23;3.45;;;;;;;1.74;82.43;101370.22;6039748;23;20023;-66
2022/03/21 02:18:53;;;;;;;12.70;2.80;;;;;;;1.71;82.10;101365.00;6039261;23;20027;-67
2022/03/21 02:21:26;;;;;;;13.85;2.88;;;;;;;1.65;83.00;101364.28;5992281;23;20037;-66
2022/03/21 02:23:57;;;;;;;14.80;3.00;;;;;;;1.63;83.02;101358.13;6040315;23;20054;-67
2022/03/21 02:26:24;;;;;;;14.25;2.92;;;;;;;1.52;82.67;101344.28;6039981;23;20022;-67
2022/03/21 02:28:50;;;;;;;18.50;3.63;;;;;;;1.58;83.32;101360.09;5992897;23;20457;-68
2022/03/21 02:31:16;;;;;;;13.60;3.30;;;;;;;1.55;84.64;101349.53;6039457;23;20049;-68
2022/03/21 02:33:43;;;;;;;15.38;2.92;;;;;;;1.56;84.79;101335.28;6016611;23;20468;-69
2022/03/21 02:36:09;;;;;;;20.38;3.22;;;;;;;1.44;84.00;101351.69;6015517;23;20031;-69
2022/03/21 02:38:36;;;;;;;11.75;3.13;;;;;;;1.49;84.72;101352.38;6015780;23;20046;-68
2022/03/21 02:41:02;;;;;;;13.05;3.53;;;;;;;1.40;84.32;101360.72;6015415;23;20019;-68
2022/03/21 02:43:28;;;;;;;14.85;3.30;;;;;;;1.34;84.32;101360.91;5991607;23;20027;-69
2022/03/21 02:46:06;;;;;;;17.90;3.67;;;;;;;1.31;84.57;101366.31;5991933;23;20504;-68
2022/03/21 02:48:32;;;;;;;14.27;3.10;;;;;;;1.26;84.70;101357.63;6015755;23;20023;-69
2022/03/21 02:51:02;;;;;;;13.27;2.97;;;;;;;1.30;85.40;101359.25;6039038;23;20023;-67
2022/03/21 02:53:30;;;;;;;16.10;3.30;;;;;;;1.28;85.30;101353.09;6015636;23;20066;-70
2022/03/21 02:55:57;;;;;;;16.75;4.05;;;;;;;1.29;85.73;101363.72;6039108;23;20057;-69
2022/03/21 02:58:23;;;;;;;16.60;4.30;;;;;;;1.24;85.58;101354.13;6015984;23;20027;-68
2022/03/21 03:00:50;;;;;;;15.63;3.33;;;;;;;1.40;85.84;101361.56;5991281;23;20473;-68
2022/03/21 03:03:16;;;;;;;21.60;4.13;;;;;;;1.24;85.06;101355.00;5992143;23;20034;-70
2022/03/21 03:05:42;;;;;;;14.55;3.85;;;;;;;1.19;85.54;101363.13;5992839;23;20093;-69
2022/03/21 03:08:07;;;;;;;12.63;3.17;;;;;;;1.12;85.92;101356.25;5992832;23;20418;-69
2022/03/21 03:10:33;;;;;;;14.15;4.15;;;;;;;1.07;86.02;101355.56;5991812;23;20050;-67
2022/03/21 03:12:59;;;;;;;12.90;3.20;;;;;;;1.10;86.30;101362.59;5993203;23;20082;-68
2022/03/21 03:15:25;;;;;;;12.48;2.92;;;;;;;1.04;86.24;101355.66;6016155;23;20033;-68
2022/03/21 03:17:51;;;;;;;16.58;3.60;;;;;;;1.05;86.00;101354.72;5992928;23;20062;-69
2022/03/21 03:20:17;;;;;;;14.57;3.30;;;;;;;1.12;86.76;101361.59;6015013;23;20026;-68
2022/03/21 03:22:43;;;;;;;12.95;2.88;;;;;;;1.04;86.74;101358.31;6015908;23;20122;-69
2022/03/21 03:25:09;;;;;;;16.70;3.85;;;;;;;1.11;87.12;101354.53;5992149;23;20038;-68
2022/03/21 03:27:36;;;;;;;19.67;3.50;;;;;;;1.04;86.80;101346.78;6016043;23;20035;-68
2022/03/21 03:30:02;;;;;;;13.40;3.17;;;;;;;1.11;87.08;101354.53;6015789;23;20165;-67
2022/03/21 03:32:29;;;;;;;15.88;3.10;;;;;;;1.07;86.90;101355.56;6062533;23;20114;-69
2022/03/21 03:34:55;;;;;;;17.30;3.80;;;;;;;1.09;88.02;101356.34;6015668;23;20026;-69
2022/03/21 03:37:21;;;;;;;21.83;3.70;;;;;;;1.04;86.70;101352.97;6015026;23;20457;-69
2022/03/21 03:39:47;;;;;;;15.38;3.80;;;;;;;1.05;86.87;101338.75;6015196;23;20042;-68
2022/03/21 03:42:13;;;;;;;21.60;3.97;;;;;;;1.04;86.90;101339.66;6015207;23;20027;-69
2022/03/21 03:44:39;;;;;;;17.80;4.18;;;;;;;1.00;86.71;101351.34;5991754;23;20078;-70
2022/03/21 03:47:05;;;;;;;14.35;3.58;;;;;;;1.08;87.11;101343.09;5991823;23;20501;-69
2022/03/21 03:49:31;;;;;;;16.00;4.57;;;;;;;1.04;87.11;101339.66;5992640;23;20348;-70
2022/03/21 03:51:57;;;;;;;15.40;4.10;;;;;;;1.10;87.34;101344.81;6015259;23;20019;-69
2022/03/21 03:54:23;;;;;;;20.05;4.03;;;;;;;1.00;87.21;101335.38;6016369;23;20260;-69
2022/03/21 03:56:49;;;;;;;25.63;5.82;;;;;;;1.00;87.20;101330.03;6039040;23;20058;-70
2022/03/21 03:59:14;;;;;;;21.25;4.82;;;;;;;1.00;87.30;101338.03;6014128;23;20469;-70
2022/03/21 04:01:40;;;;;;;21.23;4.38;;;;;;;0.99;86.80;101336.28;5991761;23;20087;-72
2022/03/21 04:04:06;;;;;;;16.50;4.22;;;;;;;1.02;87.85;101333.50;6014699;23;20037;-70
2022/03/21 04:06:32;;;;;;;16.85;4.07;;;;;;;0.91;86.86;101319.66;6013269;23;20416;-73
2022/03/21 04:08:59;;;;;;;18.25;3.95;;;;;;;1.13;87.70;101331.41;6013272;23;20023;-71
2022/03/21 04:11:25;;;;;;;16.70;5.38;;;;;;;1.06;87.47;101334.28;5992946;23;20091;-71
2022/03/21 04:13:53;;;;;;;20.80;6.10;;;;;;;1.02;86.96;101322.84;6039355;23;20027;-76
2022/03/21 04:16:19;;;;;;;16.15;4.47;;;;;;;1.09;87.80;101328.84;6022260;23;20042;-72
2022/03/21 04:18:45;;;;;;;22.98;5.93;;;;;;;1.11;87.65;101327.91;6039670;23;20449;-70
2022/03/21 04:21:11;;;;;;;20.52;4.82;;;;;;;1.20;87.68;101338.22;6014644;23;20031;-74
2022/03/21 04:23:37;;;;;;;19.98;4.80;;;;;;;1.22;86.62;101337.34;5996336;23;20033;-72
2022/03/21 04:26:03;;;;;;;21.48;5.20;;;;;;;1.14;86.17;101333.13;5992163;23;20055;-71
2022/03/21 04:28:29;;;;;;;15.02;4.75;;;;;;;1.16;86.98;101336.59;5967662;23;20026;-72
2022/03/21 04:30:55;;;;;;;15.00;3.83;;;;;;;1.36;87.04;101335.97;6017775;23;20034;-74
2022/03/21 04:33:21;;;;;;;14.48;4.05;;;;;;;1.43;86.30;101340.16;6016424;23;20114;-72
2022/03/21 04:35:47;;;;;;;22.10;5.07;;;;;;;1.33;85.44;101327.19;6014467;23;20348;-71
2022/03/21 04:38:14;;;;;;;20.08;4.57;;;;;;;1.44;84.85;101325.03;5992566;23;20022;-71
2022/03/21 04:40:45;;;;;;;15.05;4.53;;;;;;;1.49;85.10;101338.19;5992247;23;20134;-72
2022/03/21 04:43:13;;;;;;;15.07;4.47;;;;;;;1.44;85.03;101341.03;6017153;23;20018;-71
2022/03/21 04:45:40;;;;;;;17.40;3.95;;;;;;;1.51;84.33;101331.91;6017303;23;20085;-72
2022/03/21 04:48:06;;;;;;;12.60;4.40;;;;;;;1.69;84.70;101341.94;6017841;23;20136;-72
2022/03/21 04:50:32;;;;;;;13.68;3.92;;;;;;;1.66;84.02;101341.16;5994077;23;20484;-73
2022/03/21 04:52:59;;;;;;;18.05;3.85;;;;;;;1.71;83.93;101333.00;6018097;23;20449;-73
2022/03/21 04:55:26;;;;;;;13.18;3.70;;;;;;;1.73;83.68;101307.19;6019816;23;20101;-72
2022/03/21 04:57:52;;;;;;;15.70;4.10;;;;;;;1.90;83.54;101320.75;5993353;23;20559;-71
2022/03/21 05:00:18;;;;;;;16.70;4.43;;;;;;;2.02;82.25;101325.66;5996599;23;20121;-71
2022/03/21 05:02:44;;;;;;;14.85;4.85;;;;;;;2.06;82.12;101319.28;6020226;23;20031;-72
2022/03/21 05:05:10;;;;;;;22.60;4.57;;;;;;;2.04;82.05;101306.94;5996844;23;20049;-72
2022/03/21 05:07:45;;;;;;;15.38;4.30;;;;;;;2.27;82.35;101322.97;5996001;23;20066;-71
2022/03/21 05:10:11;;;;;;;19.05;4.30;;;;;;;2.30;81.20;101321.97;5999345;23;20023;-71
2022/03/21 05:12:37;;;;;;;18.65;4.00;;;;;;;2.50;80.07;101332.78;5996374;23;20038;-71
2022/03/21 05:15:06;;;;;;;23.00;5.22;;;;;;;2.40;79.35;101332.25;6024995;23;20086;-72
2022/03/21 05:17:36;;;;;;;15.05;4.32;;;;;;;2.46;79.62;101325.81;6019815;23;20220;-73
2022/03/21 05:20:09;;;;;;;15.13;4.55;;;;;;;2.57;79.24;101326.28;5994075;23;20027;-72
2022/03/21 05:22:35;;;;;;;18.67;4.53;;;;;;;2.65;78.85;101329.50;6045528;23;20023;-72
2022/03/21 05:30:57;;;;;;;22.05;4.82;;;;;;;2.72;77.91;101323.94;6020902;23;20103;-71
2022/03/21 05:36:01;;;;;;;18.50;4.10;;;;;;;3.31;76.49;101323.31;6019642;23;20018;-72
2022/03/21 05:38:31;;;;;;;14.32;4.18;;;;;;;3.46;74.83;101322.66;5992283;23;20022;-72
2022/03/21 05:41:03;;;;;;;18.65;4.95;;;;;;;3.54;74.12;101328.56;6017697;23;20030;-72
2022/03/21 05:43:33;;;;;;;23.20;5.18;;;;;;;4.37;72.28;101322.22;6017257;23;20464;-72
2022/03/21 05:46:00;;;;;;;14.93;4.15;;;;;;;6.45;63.98;101322.53;6040039;23;20086;-72
2022/03/21 05:51:12;;;;;;;14.93;4.85;;;;;;;9.07;53.77;101327.50;6020213;23;20053;-72
2022/03/21 05:53:38;;;;;;;16.02;4.47;;;;;;;10.32;50.71;101323.53;6015906;23;20118;-73
2022/03/21 05:56:05;;;;;;;15.82;4.07;;;;;;;10.19;52.47;101320.75;6039441;23;20031;-71
2022/03/21 05:58:31;;;;;;;20.25;4.25;;;;;;;10.89;48.76;101324.84;6016256;23;20042;-72
2022/03/21 06:00:57;;;;;;;14.80;4.18;;;;;;;10.37;48.06;101337.56;6039101;23;20054;-72
2022/03/21 06:03:26;;;;;;;20.15;4.05;;;;;;;9.78;49.67;101331.75;6017604;23;20484;-72
2022/03/21 06:05:55;;;;;;;13.95;3.63;;;;;;;9.97;50.16;101331.34;6017190;23;20332;-73
2022/03/21 06:08:22;;;;;;;13.90;3.92;;;;;;;11.25;46.24;101332.94;6016351;23;20030;-72
2022/03/21 06:10:48;;;;;;;15.00;4.07;;;;;;;11.25;45.63;101335.66;6015628;23;20496;-72
2022/03/21 06:13:15;;;;;;;15.15;4.13;;;;;;;11.53;45.01;101322.75;5992476;23;20030;-72
2022/03/21 06:15:41;;;;;;;29.42;4.63;;;;;;;12.49;42.78;101341.53;6016193;23;20026;-72
2022/03/21 06:18:12;;;;;;;16.70;4.75;;;;;;;13.13;41.20;101330.03;6015536;23;20035;-72
2022/03/21 06:20:39;;;;;;;19.52;4.72;;;;;;;12.69;41.57;101327.25;5992522;23;20031;-74
2022/03/21 06:23:05;;;;;;;20.75;5.22;;;;;;;13.46;41.76;101337.25;6039549;23;20461;-72
2022/03/21 06:25:32;;;;;;;17.38;4.60;;;;;;;13.93;39.04;101318.75;6016929;23;20026;-73
2022/03/21 06:27:58;;;;;;;20.20;6.45;;;;;;;14.47;38.35;101317.66;6018666;23;20027;-72
2022/03/21 06:30:24;;;;;;;14.07;4.60;;;;;;;14.39;37.76;101320.19;6018793;23;20037;-73
2022/03/21 06:32:50;;;;;;;22.15;5.28;;;;;;;14.08;39.33;101314.72;5994289;23;20031;-72
2022/03/21 06:35:16;;;;;;;16.92;5.28;;;;;;;15.04;37.21;101321.66;6016930;23;20046;-73
2022/03/21 06:37:42;;;;;;;20.02;5.03;;;;;;;15.18;37.00;101329.44;6017173;23;20030;-71
2022/03/21 06:40:09;;;;;;;19.50;5.07;;;;;;;14.96;36.83;101321.50;5995556;23;20407;-74
2022/03/21 06:42:35;;;;;;;20.33;4.50;;;;;;;15.56;35.56;101319.56;5993627;23;20062;-71
2022/03/21 06:45:01;;;;;;;17.42;5.10;;;;;;;16.26;34.47;101320.25;5996085;23;20034;-73
2022/03/21 06:47:29;;;;;;;24.83;5.30;;;;;;;16.33;34.33;101321.41;5996528;23;20078;-72
2022/03/21 06:49:55;;;;;;;17.58;5.22;;;;;;;16.64;33.68;101297.44;5993781;23;20031;-74
2022/03/21 06:52:21;;;;;;;19.52;5.00;;;;;;;16.64;33.21;101313.84;5996630;23;20027;-74
2022/03/21 06:54:48;;;;;;;17.50;5.00;;;;;;;16.76;32.82;101311.81;5994556;23;20027;-74
2022/03/21 06:57:16;;;;;;;18.30;4.70;;;;;;;15.80;34.43;101307.44;5996302;23;20078;-75
2022/03/21 06:59:43;;;;;;;19.98;4.80;;;;;;;17.31;31.93;101305.44;6040801;23;20059;-74
2022/03/21 07:02:09;;;;;;;27.40;6.78;;;;;;;18.14;30.60;101302.47;6018119;23;20464;-75
2022/03/21 07:04:35;;;;;;;17.67;4.95;;;;;;;18.38;29.59;101299.03;6018340;23;20079;-75
2022/03/21 07:07:01;;;;;;;28.60;5.35;;;;;;;17.78;31.83;101308.00;5993398;23;20027;-75
2022/03/21 07:09:27;;;;;;;24.92;5.15;;;;;;;17.45;30.93;101296.72;6016975;23;20022;-74
2022/03/21 07:11:53;;;;;;;15.52;4.25;;;;;;;18.06;29.99;101295.94;6016646;23;20027;-74
2022/03/21 07:14:20;;;;;;;17.63;5.03;;;;;;;18.59;29.58;101291.28;5993281;23;20126;-74
2022/03/21 07:16:46;;;;;;;21.27;4.75;;;;;;;19.50;28.33;101296.94;5992803;23;20050;-75
2022/03/21 07:19:12;;;;;;;18.58;5.03;;;;;;;17.83;28.96;101287.34;6019585;23;20038;-74
2022/03/21 07:21:38;;;;;;;16.35;4.45;;;;;;;18.51;29.10;101300.31;5997214;23;20076;-75
2022/03/21 07:24:04;;;;;;;19.17;5.30;;;;;;;17.87;29.44;101300.72;5996426;23;20031;-71
2022/03/21 07:26:31;;;;;;;22.75;4.90;;;;;;;17.67;32.23;101294.53;6016760;23;20064;-74
2022/03/21 07:28:57;;;;;;;18.70;4.65;;;;;;;20.14;26.98;101304.53;6040425;23;20031;-75
2022/03/21 07:31:23;;;;;;;15.43;4.57;;;;;;;20.18;28.36;101292.16;6016602;23;20379;-75
2022/03/21 07:33:49;;;;;;;19.73;4.80;;;;;;;20.45;27.48;101286.28;6017244;23;20030;-74
2022/03/21 07:36:16;;;;;;;15.85;4.38;;;;;;;20.69;26.00;101290.00;6018029;23;20461;-75
2022/03/21 07:38:41;;;;;;;23.60;5.97;;;;;;;19.55;26.75;101288.19;6043081;23;20516;-74
2022/03/21 07:41:08;;;;;;;18.85;4.97;;;;;;;20.11;26.35;101288.38;5993316;23;20027;-75
2022/03/21 07:43:37;;;;;;;20.67;4.97;;;;;;;19.44;26.65;101269.31;6016965;23;20027;-74
2022/03/21 07:48:50;;;;;;;13.90;4.57;;;;;;;19.87;26.11;101276.41;6021756;23;20098;-76
2022/03/21 07:51:16;;;;;;;19.58;5.05;;;;;;;20.32;24.88;101263.13;6018275;23;20066;-73
2022/03/21 07:53:42;;;;;;;21.60;6.47;;;;;;;19.70;27.39;101270.06;6020979;23;20050;-74
2022/03/21 07:56:09;;;;;;;32.15;5.43;;;;;;;20.74;26.13;101273.00;5996137;23;20033;-75
2022/03/21 07:58:35;;;;;;;59.60;7.65;;;;;;;20.59;25.02;101267.38;5998336;23;20030;-74
2022/03/21 08:01:02;;;;;;;68.15;8.27;;;;;;;20.64;24.76;101262.22;6003500;23;20022;-73
2022/03/21 08:03:28;;;;;;;19.13;4.75;;;;;;;21.11;24.05;101253.06;6048588;23;20029;-74
2022/03/21 08:05:57;;;;;;;37.40;7.05;;;;;;;22.37;25.01;101266.31;6020626;23;20034;-74
2022/03/21 08:08:23;;;;;;;20.23;4.28;;;;;;;20.37;24.19;101266.22;5997278;23;20129;-74
2022/03/21 08:10:49;;;;;;;55.17;8.05;;;;;;;22.04;23.44;101271.28;5997506;23;20030;-75
2022/03/21 08:13:17;;;;;;;28.05;5.72;;;;;;;22.65;22.27;101274.81;6020428;23;20042;-75
2022/03/21 08:15:47;;;;;;;20.02;5.28;;;;;;;22.36;22.30;101271.00;6021025;23;20073;-74
2022/03/21 08:18:13;;;;;;;14.02;4.65;;;;;;;21.70;22.70;101261.59;5997052;23;20053;-76
2022/03/21 08:20:43;;;;;;;16.55;4.68;;;;;;;21.73;22.59;101258.50;6024275;23;20039;-75
2022/03/21 08:23:12;;;;;;;19.63;4.50;;;;;;;22.35;22.08;101263.78;5996905;23;20023;-76
2022/03/21 08:25:45;;;;;;;35.05;5.72;;;;;;;22.85;22.50;101259.41;5996196;23;20026;-75
2022/03/21 08:28:11;;;;;;;56.00;7.43;;;;;;;23.14;23.28;101281.63;6019450;23;20107;-74
2022/03/21 08:30:38;;;;;;;25.63;5.03;;;;;;;22.92;24.04;101280.69;6017210;23;20027;-75
2022/03/21 08:33:06;;;;;;;15.90;4.00;;;;;;;23.07;22.31;101267.72;6041093;23;20023;-74
2022/03/21 08:35:33;;;;;;;21.35;4.80;;;;;;;23.22;22.78;101276.84;6040365;23;20078;-73
2022/03/21 08:38:00;;;;;;;29.13;5.45;;;;;;;24.08;21.07;101282.41;6018264;23;20050;-74
2022/03/21 08:40:26;;;;;;;33.17;6.13;;;;;;;24.69;21.28;101288.19;6017929;23;20102;-74
2022/03/21 08:42:52;;;;;;;21.73;5.13;;;;;;;24.45;21.58;101280.34;5995798;23;20023;-75
2022/03/21 08:45:18;;;;;;;40.35;5.93;;;;;;;22.97;21.56;101267.19;5995241;23;20124;-74
2022/03/21 08:47:44;;;;;;;21.83;4.72;;;;;;;23.05;22.97;101280.88;6042264;23;20022;-75
2022/03/21 08:50:11;;;;;;;16.38;4.55;;;;;;;22.75;23.72;101272.63;5993775;23;20030;-73
2022/03/21 08:52:38;;;;;;;20.52;4.82;;;;;;;24.46;19.86;101268.22;6042383;23;20023;-75
2022/03/21 08:55:07;;;;;;;73.35;8.23;;;;;;;23.70;20.41;101273.56;5993907;23;20023;-75
2022/03/21 08:57:33;;;;;;;18.73;4.47;;;;;;;23.71;20.30;101273.34;5994380;23;20031;-75
2022/03/21 08:59:59;;;;;;;19.63;4.93;;;;;;;25.06;19.67;101274.94;6018252;23;20454;-76
2022/03/21 09:02:26;;;;;;;18.38;4.95;;;;;;;24.48;19.78;101266.13;6019698;23;20027;-76
2022/03/21 09:04:52;;;;;;;17.00;4.57;;;;;;;24.86;20.47;101265.69;6041850;23;20050;-73
2022/03/21 09:07:18;;;;;;;20.88;4.78;;;;;;;22.58;20.47;101246.28;5995083;23;20078;-76
2022/03/21 09:09:44;;;;;;;14.35;3.97;;;;;;;24.66;20.88;101265.59;5995997;23;20383;-75
2022/03/21 09:12:11;;;;;;;14.35;4.32;;;;;;;23.48;19.95;101247.84;5996423;23;20034;-75
2022/03/21 09:14:37;;;;;;;18.23;4.78;;;;;;;23.59;20.92;101252.81;6040721;23;20477;-75
2022/03/21 09:17:04;;;;;;;16.17;4.05;;;;;;;23.99;19.13;101261.50;5994871;23;20453;-76
2022/03/21 09:19:30;;;;;;;14.98;5.30;;;;;;;23.76;19.76;101261.72;6041130;23;20083;-75
2022/03/21 09:21:57;;;;;;;19.75;4.65;;;;;;;24.38;19.07;101243.47;5994490;23;20357;-76
2022/03/21 09:24:23;;;;;;;15.65;4.05;;;;;;;23.49;20.26;101255.06;5996072;23;20027;-76
2022/03/21 09:26:49;;;;;;;13.85;4.47;;;;;;;24.24;21.12;101235.13;6024538;23;20027;-76
2022/03/21 09:29:16;;;;;;;16.67;4.40;;;;;;;25.10;18.99;101242.16;5997916;23;20022;-76
2022/03/21 09:31:42;;;;;;;20.85;4.82;;;;;;;25.08;19.41;101239.59;5995090;23;20030;-76
2022/03/21 09:34:10;;;;;;;16.63;4.40;;;;;;;24.20;19.41;101247.63;6017637;23;20049;-76
2022/03/21 09:36:36;;;;;;;23.40;4.65;;;;;;;24.14;20.93;101244.81;6017930;23;20026;-74
2022/03/21 09:39:03;;;;;;;17.70;4.55;;;;;;;24.72;21.30;101235.22;5996802;23;20030;-75
2022/03/21 09:41:30;;;;;;;17.98;4.80;;;;;;;24.24;19.40;101243.41;6017555;23;20035;-76
2022/03/21 09:44:07;;;;;;;22.98;5.15;;;;;;;24.22;19.21;101231.69;5998169;23;20085;-76
2022/03/21 09:46:33;;;;;;;17.83;4.00;;;;;;;25.21;20.39;101245.22;6020125;23;20019;-77
2022/03/21 09:48:59;;;;;;;18.13;4.53;;;;;;;24.93;18.73;101238.91;6020173;23;20371;-75
2022/03/21 09:51:27;;;;;;;22.27;4.82;;;;;;;24.24;19.04;101232.38;5995043;23;20025;-76
2022/03/21 09:53:54;;;;;;;20.25;4.22;;;;;;;24.57;19.03;101237.25;6042826;23;20022;-75
2022/03/21 09:56:21;;;;;;;31.30;5.95;;;;;;;25.37;19.26;101234.81;6018847;23;20126;-76
2022/03/21 09:58:50;;;;;;;31.45;5.07;;;;;;;25.61;18.38;101234.22;6018191;23;20080;-76
2022/03/21 10:01:16;;;;;;;18.92;4.25;;;;;;;25.68;17.87;101226.75;6022168;23;20038;-76
2022/03/21 10:03:43;;;;;;;18.50;4.30;;;;;;;25.53;18.10;101230.81;6018212;23;20029;-75
2022/03/21 10:06:28;;;;;;;21.60;4.38;;;;;;;25.12;18.02;101229.88;6019441;23;20357;-75
2022/03/21 10:09:14;;;;;;;13.02;4.03;;;;;;;25.98;16.89;101234.69;6017879;23;20019;-76
2022/03/21 10:11:49;;;;;;;14.13;3.90;;;;;;;25.64;17.25;101233.78;6017365;23;20023;-76
2022/03/21 10:14:28;;;;;;;15.57;3.95;;;;;;;25.74;17.76;101239.78;6017388;23;20034;-76
2022/03/21 10:16:57;;;;;;;17.80;4.20;;;;;;;25.95;16.65;101246.19;6018228;23;20082;-75
2022/03/21 10:19:24;;;;;;;16.30;4.43;;;;;;;24.50;19.02;101240.00;5995966;23;20031;-76
2022/03/21 10:22:04;;;;;;;16.13;3.50;;;;;;;24.34;18.45;101247.72;6041183;23;20081;-75
2022/03/21 10:24:42;;;;;;;18.92;3.78;;;;;;;25.23;18.28;101229.25;6040200;23;20022;-74
2022/03/21 10:27:29;;;;;;;17.33;3.90;;;;;;;25.48;18.45;101217.56;6016920;23;20074;-76
2022/03/21 10:30:00;;;;;;;15.13;4.10;;;;;;;25.32;17.00;101232.69;5992868;23;20061;-75
2022/03/21 10:32:33;;;;;;;13.70;4.05;;;;;;;25.75;17.70;101235.09;5993632;23;20319;-76
2022/03/21 10:35:04;;;;;;;15.77;4.20;;;;;;;25.50;17.04;101232.06;6020494;23;20061;-74
2022/03/21 10:37:48;;;;;;;15.65;4.68;;;;;;;25.28;17.32;101222.25;6017861;23;20031;-75
2022/03/21 10:40:33;;;;;;;60.08;7.55;;;;;;;25.35;18.20;101225.88;6041704;23;20130;-75
2022/03/21 10:43:03;;;;;;;14.40;3.78;;;;;;;25.05;18.19;101228.97;5993834;23;20380;-75
2022/03/21 10:45:38;;;;;;;30.30;4.60;;;;;;;24.62;18.70;101218.13;6020134;23;20027;-74
2022/03/21 10:48:04;;;;;;;;;;;;;;;25.30;17.23;101225.63;6042088;23;20525;-76
2022/03/21 10:50:32;;;;;;;21.27;3.78;;;;;;;24.91;18.19;101222.53;6041180;23;19984;-75
2022/03/21 10:53:15;;;;;;;15.15;4.10;;;;;;;24.83;18.34;101224.59;6017405;23;20030;-74
2022/03/21 10:55:47;;;;;;;14.23;3.70;;;;;;;25.65;17.47;101226.34;6040868;23;20045;-76
2022/03/21 10:58:15;;;;;;;22.23;3.78;;;;;;;25.73;16.80;101232.50;6042317;23;20097;-74
2022/03/21 11:00:41;;;;;;;15.80;3.67;;;;;;;24.88;17.80;101227.63;6018790;23;20501;-74
2022/03/21 11:03:15;;;;;;;15.15;3.85;;;;;;;24.62;17.34;101206.22;5993883;23;20118;-74
2022/03/21 11:05:43;;;;;;;20.15;4.55;;;;;;;25.21;17.36;101223.06;6017903;23;20110;-74
2022/03/21 11:08:11;;;;;;;12.73;3.58;;;;;;;24.70;17.42;101220.72;5993625;23;20035;-74
2022/03/21 11:10:38;;;;;;;12.75;3.53;;;;;;;24.86;17.18;101224.19;5994354;23;20318;-75
2022/03/21 11:13:06;;;;;;;14.85;3.35;;;;;;;24.44;18.29;101221.44;6018612;23;20041;-76
2022/03/21 11:15:35;;;;;;;15.85;3.90;;;;;;;23.74;18.42;101209.44;6044532;23;20037;-74
2022/03/21 11:18:02;;;;;;;14.05;3.88;;;;;;;24.71;18.33;101210.50;5997117;23;20019;-75
2022/03/21 11:20:29;;;;;;;13.30;3.55;;;;;;;24.74;17.79;101201.81;6019733;23;20027;-74
2022/03/21 11:22:56;;;;;;;13.65;2.95;;;;;;;24.90;18.29;101217.19;5996494;23;20177;-75
2022/03/21 11:25:25;;;;;;;14.55;3.33;;;;;;;24.70;17.95;101206.91;6038769;23;20106;-75
2022/03/21 11:27:53;;;;;;;13.32;4.05;;;;;;;23.77;18.56;101191.63;6012752;23;20361;-75
2022/03/21 11:30:42;;;;;;;19.48;4.35;;;;;;;24.19;18.22;101206.38;6043467;23;20393;-74
2022/03/21 11:33:39;;;;;;;12.65;3.83;;;;;;;23.32;19.28;101204.75;6021058;23;20086;-74
2022/03/21 11:36:07;;;;;;;14.80;3.80;;;;;;;23.35;18.79;101204.38;5970768;23;20090;-75
2022/03/21 11:38:36;;;;;;;16.83;4.53;;;;;;;23.56;18.84;101206.28;5999745;23;20544;-74
2022/03/21 11:41:22;;;;;;;;;;;;;;;23.40;19.21;101204.66;6053438;23;20026;-74